Time;durP1;ratioP1;P1;durP2;ratioP2;P2;SDS_P1;SDS_P2;PMS_P1;PMS_P2;Temp;Humidity;BMP_temperature;BMP_pressure;BME280_temperature;BME280_humidity;BME280_pressure;Samples;Min_cycle;Max_cycle;Signal;HPM_P1;HPM_P2
2023/12/21 00:00:12;;;;;;;30.17;16.67;;;;;;;;;;4981062;28;20046;-69
2023/12/21 00:02:38;;;;;;;31.15;16.85;;;;;;;;;;4981238;28;20572;-69
2023/12/21 00:05:05;;;;;;;30.00;16.38;;;;;;;;;;4984985;28;20039;-69
2023/12/21 00:07:31;;;;;;;26.77;16.63;;;;;;;;;;4979468;28;20130;-69
2023/12/21 00:09:57;;;;;;;28.05;16.13;;;;;;;;;;4982765;28;20074;-69
2023/12/21 00:12:24;;;;;;;30.98;19.35;;;;;;;;;;4985947;28;20860;-70
2023/12/21 00:14:50;;;;;;;36.65;18.33;;;;;;;;;;4980976;28;20042;-69
2023/12/21 00:17:16;;;;;;;27.35;18.05;;;;;;;;;;4980286;28;20065;-69
2023/12/21 00:19:42;;;;;;;28.50;18.20;;;;;;;;;;4982400;28;20038;-69
2023/12/21 00:22:08;;;;;;;25.80;16.70;;;;;;;;;;4979656;28;20042;-69
2023/12/21 00:24:34;;;;;;;31.30;16.67;;;;;;;;;;4978892;28;20046;-70
2023/12/21 00:27:00;;;;;;;27.55;17.27;;;;;;;;;;4981597;28;20531;-70
2023/12/21 00:29:26;;;;;;;33.10;18.48;;;;;;;;;;4981501;28;20402;-70
2023/12/21 00:31:52;;;;;;;28.75;17.60;;;;;;;;;;4980253;28;20046;-70
2023/12/21 00:34:18;;;;;;;32.58;19.50;;;;;;;;;;4978874;28;20543;-70
2023/12/21 00:36:46;;;;;;;29.17;18.90;;;;;;;;;;4982378;28;20034;-70
2023/12/21 00:39:12;;;;;;;26.80;18.15;;;;;;;;;;4977166;28;20034;-70
2023/12/21 00:41:38;;;;;;;26.15;17.40;;;;;;;;;;4985501;28;20031;-70
2023/12/21 00:44:04;;;;;;;26.30;17.58;;;;;;;;;;4999912;28;20046;-70
2023/12/21 00:46:30;;;;;;;28.48;17.58;;;;;;;;;;4975092;28;20092;-70
2023/12/21 00:48:56;;;;;;;27.48;17.65;;;;;;;;;;4960529;28;20047;-70
2023/12/21 00:51:22;;;;;;;30.08;17.65;;;;;;;;;;4966007;28;20269;-70
2023/12/21 00:53:48;;;;;;;26.60;17.77;;;;;;;;;;4975207;28;20031;-70
2023/12/21 00:56:14;;;;;;;27.15;17.33;;;;;;;;;;4967723;28;20061;-70
2023/12/21 00:58:40;;;;;;;30.13;19.30;;;;;;;;;;4982755;28;20066;-70
2023/12/21 01:01:06;;;;;;;28.42;18.65;;;;;;;;;;4981298;28;20371;-71
2023/12/21 01:03:32;;;;;;;27.60;17.52;;;;;;;;;;4981001;28;20455;-71
2023/12/21 01:05:58;;;;;;;26.45;18.00;;;;;;;;;;4985597;28;20498;-69
2023/12/21 01:08:24;;;;;;;30.33;18.60;;;;;;;;;;4981412;28;20046;-69
2023/12/21 01:10:50;;;;;;;31.17;18.25;;;;;;;;;;4983365;28;20034;-69
2023/12/21 01:13:16;;;;;;;26.17;18.23;;;;;;;;;;4980096;28;20121;-69
2023/12/21 01:15:42;;;;;;;26.83;18.42;;;;;;;;;;4982894;28;20406;-69
2023/12/21 01:18:08;;;;;;;24.83;16.95;;;;;;;;;;4979874;28;20040;-69
2023/12/21 01:20:34;;;;;;;27.15;18.80;;;;;;;;;;4980627;28;20666;-68
2023/12/21 01:23:00;;;;;;;32.65;18.88;;;;;;;;;;4982506;28;20035;-69
2023/12/21 01:25:26;;;;;;;20.65;16.42;;;;;;;;;;4974722;28;20170;-69
2023/12/21 01:27:52;;;;;;;29.17;18.98;;;;;;;;;;4981042;28;20169;-69
2023/12/21 01:30:18;;;;;;;28.27;18.48;;;;;;;;;;4983424;28;20616;-69
2023/12/21 01:32:44;;;;;;;26.17;18.23;;;;;;;;;;4974084;28;20089;-69
2023/12/21 01:35:10;;;;;;;28.42;18.70;;;;;;;;;;4963146;28;20093;-70
2023/12/21 01:37:36;;;;;;;33.65;18.38;;;;;;;;;;4988047;28;20379;-71
2023/12/21 01:40:03;;;;;;;27.83;19.23;;;;;;;;;;4967730;28;20795;-70
2023/12/21 01:42:29;;;;;;;29.67;18.58;;;;;;;;;;4983791;28;20089;-70
2023/12/21 01:44:55;;;;;;;31.02;19.38;;;;;;;;;;4977328;28;20042;-70
2023/12/21 01:47:21;;;;;;;30.60;19.17;;;;;;;;;;4968933;28;20057;-71
2023/12/21 01:49:48;;;;;;;32.45;19.50;;;;;;;;;;4971309;28;20686;-70
2023/12/21 01:52:15;;;;;;;30.73;18.75;;;;;;;;;;4982293;28;20026;-70
2023/12/21 01:54:41;;;;;;;33.97;19.60;;;;;;;;;;4977841;28;20129;-70
2023/12/21 01:57:07;;;;;;;36.65;17.60;;;;;;;;;;4981246;28;20039;-70
2023/12/21 01:59:33;;;;;;;29.95;17.17;;;;;;;;;;4982835;28;20608;-71
2023/12/21 02:01:59;;;;;;;28.60;16.38;;;;;;;;;;4978844;28;20486;-70
2023/12/21 02:04:25;;;;;;;28.40;18.23;;;;;;;;;;4982030;28;20038;-70
2023/12/21 02:06:51;;;;;;;31.52;19.13;;;;;;;;;;4983969;28;20045;-70
2023/12/21 02:09:17;;;;;;;29.95;19.00;;;;;;;;;;4992557;28;20088;-70
2023/12/21 02:11:43;;;;;;;28.67;18.27;;;;;;;;;;4987971;28;20041;-70
2023/12/21 02:14:09;;;;;;;33.08;19.25;;;;;;;;;;4983238;28;20318;-69
2023/12/21 02:16:37;;;;;;;26.25;17.42;;;;;;;;;;4997916;28;20125;-70
2023/12/21 02:19:03;;;;;;;29.80;18.15;;;;;;;;;;4986764;28;20034;-70
2023/12/21 02:21:30;;;;;;;32.58;18.65;;;;;;;;;;4991401;28;20656;-70
2023/12/21 02:23:57;;;;;;;27.35;17.15;;;;;;;;;;4989690;28;20452;-70
2023/12/21 02:26:24;;;;;;;28.17;17.63;;;;;;;;;;4986448;28;20428;-70
2023/12/21 02:28:50;;;;;;;29.02;17.38;;;;;;;;;;4986669;28;20717;-70
2023/12/21 02:31:16;;;;;;;31.92;17.60;;;;;;;;;;4996632;28;20027;-70
2023/12/21 02:33:42;;;;;;;36.08;18.42;;;;;;;;;;4998157;28;20312;-70
2023/12/21 02:36:08;;;;;;;27.00;16.90;;;;;;;;;;4989055;28;20082;-70
2023/12/21 02:38:34;;;;;;;28.48;18.20;;;;;;;;;;4988723;28;20030;-70
2023/12/21 02:41:00;;;;;;;30.42;17.42;;;;;;;;;;4997086;28;20054;-70
2023/12/21 02:43:26;;;;;;;30.80;17.58;;;;;;;;;;4987670;28;20525;-69
2023/12/21 02:45:52;;;;;;;26.42;15.55;;;;;;;;;;4988056;28;20039;-69
2023/12/21 02:48:18;;;;;;;26.50;15.98;;;;;;;;;;4985176;28;20211;-68
2023/12/21 02:50:44;;;;;;;34.65;16.33;;;;;;;;;;4989018;28;20042;-68
2023/12/21 02:53:10;;;;;;;26.05;16.05;;;;;;;;;;4989431;28;20030;-69
2023/12/21 02:55:36;;;;;;;21.08;14.50;;;;;;;;;;4988668;28;20130;-69
2023/12/21 02:58:02;;;;;;;25.90;15.95;;;;;;;;;;4987405;28;20154;-69
2023/12/21 03:00:28;;;;;;;25.02;14.93;;;;;;;;;;4982979;28;20033;-69
2023/12/21 03:02:54;;;;;;;24.00;14.30;;;;;;;;;;4983909;28;20046;-69
2023/12/21 03:05:22;;;;;;;26.02;13.02;;;;;;;;;;4982725;28;20047;-69
2023/12/21 03:07:48;;;;;;;20.35;11.88;;;;;;;;;;4983094;28;20172;-69
2023/12/21 03:10:15;;;;;;;19.45;11.00;;;;;;;;;;4975797;28;20038;-69
2023/12/21 03:12:41;;;;;;;17.00;11.00;;;;;;;;;;4982525;28;20073;-68
2023/12/21 03:15:07;;;;;;;20.13;11.18;;;;;;;;;;4982146;28;20397;-69
2023/12/21 03:17:34;;;;;;;22.67;11.07;;;;;;;;;;4982926;28;20038;-68
2023/12/21 03:20:01;;;;;;;19.90;10.35;;;;;;;;;;4981566;28;20561;-69
2023/12/21 03:22:27;;;;;;;19.95;10.27;;;;;;;;;;4981172;28;20054;-69
2023/12/21 03:24:53;;;;;;;17.95;8.65;;;;;;;;;;4981582;28;20042;-70
2023/12/21 03:27:19;;;;;;;17.77;9.73;;;;;;;;;;4982144;28;20121;-70
2023/12/21 03:29:45;;;;;;;18.30;10.73;;;;;;;;;;4982242;28;20085;-70
2023/12/21 03:32:11;;;;;;;19.52;10.38;;;;;;;;;;4981506;28;20038;-69
2023/12/21 03:34:37;;;;;;;16.08;10.55;;;;;;;;;;4981889;28;20102;-70
2023/12/21 03:37:03;;;;;;;21.98;9.88;;;;;;;;;;4980245;28;20483;-69
2023/12/21 03:39:29;;;;;;;19.75;10.70;;;;;;;;;;4976469;28;20470;-69
2023/12/21 03:41:56;;;;;;;19.27;10.82;;;;;;;;;;4980416;28;20065;-70
2023/12/21 03:44:22;;;;;;;20.58;10.93;;;;;;;;;;4981210;28;20030;-69
2023/12/21 03:46:48;;;;;;;15.77;9.27;;;;;;;;;;4981843;28;20048;-70
2023/12/21 03:49:14;;;;;;;17.75;8.98;;;;;;;;;;4980737;28;20120;-69
2023/12/21 03:51:40;;;;;;;21.50;9.13;;;;;;;;;;4991548;28;20486;-69
2023/12/21 03:54:07;;;;;;;19.27;10.30;;;;;;;;;;4978648;28;20032;-69
2023/12/21 03:56:33;;;;;;;20.75;9.98;;;;;;;;;;4979333;28;20092;-69
2023/12/21 03:58:59;;;;;;;21.38;10.18;;;;;;;;;;4981699;28;20042;-69
2023/12/21 04:01:25;;;;;;;19.13;9.73;;;;;;;;;;4982868;28;20470;-69
2023/12/21 04:03:51;;;;;;;16.73;9.52;;;;;;;;;;4983494;28;20042;-69
2023/12/21 04:06:17;;;;;;;17.65;8.95;;;;;;;;;;4981634;28;20074;-69
2023/12/21 04:08:43;;;;;;;18.90;8.70;;;;;;;;;;4982371;28;20073;-70
2023/12/21 04:11:09;;;;;;;13.38;8.02;;;;;;;;;;4980329;28;20553;-70
2023/12/21 04:13:35;;;;;;;15.95;7.72;;;;;;;;;;4979804;28;20042;-69
2023/12/21 04:16:01;;;;;;;15.02;7.28;;;;;;;;;;4980836;28;20088;-70
2023/12/21 04:18:29;;;;;;;13.30;7.95;;;;;;;;;;4983054;28;20089;-69
2023/12/21 04:20:55;;;;;;;17.50;8.32;;;;;;;;;;4979652;28;20474;-69
2023/12/21 04:23:21;;;;;;;14.63;7.97;;;;;;;;;;4980151;28;20054;-70
2023/12/21 04:25:47;;;;;;;15.65;8.02;;;;;;;;;;4979140;28;20081;-69
2023/12/21 04:28:13;;;;;;;17.00;8.10;;;;;;;;;;4983161;28;20037;-69
2023/12/21 04:30:39;;;;;;;15.48;8.45;;;;;;;;;;4963529;28;20089;-69
2023/12/21 04:33:05;;;;;;;15.40;8.82;;;;;;;;;;4980852;28;20059;-69
2023/12/21 04:35:31;;;;;;;21.38;8.38;;;;;;;;;;4981076;28;20046;-69
2023/12/21 04:37:57;;;;;;;15.23;8.77;;;;;;;;;;4979452;28;20879;-69
2023/12/21 04:40:23;;;;;;;16.35;8.57;;;;;;;;;;4979908;28;20409;-69
2023/12/21 04:42:54;;;;;;;16.08;8.15;;;;;;;;;;4976495;28;20038;-69
2023/12/21 04:45:20;;;;;;;14.68;7.80;;;;;;;;;;4980925;28;20514;-69
2023/12/21 04:47:46;;;;;;;16.23;8.07;;;;;;;;;;4972585;28;20049;-69
2023/12/21 04:50:12;;;;;;;18.33;8.27;;;;;;;;;;4972849;28;20038;-69
2023/12/21 04:52:38;;;;;;;17.25;8.57;;;;;;;;;;4964269;28;20487;-69
2023/12/21 04:55:05;;;;;;;12.10;7.25;;;;;;;;;;4976044;28;20061;-69
2023/12/21 04:57:31;;;;;;;14.02;7.85;;;;;;;;;;4980436;28;20181;-69
2023/12/21 04:59:57;;;;;;;19.73;8.75;;;;;;;;;;4984414;28;20045;-69
2023/12/21 05:02:23;;;;;;;15.85;8.15;;;;;;;;;;4982502;28;20030;-69
2023/12/21 05:04:49;;;;;;;13.82;7.15;;;;;;;;;;4969086;28;20478;-68
2023/12/21 05:07:15;;;;;;;15.05;8.93;;;;;;;;;;4959565;28;20038;-68
2023/12/21 05:09:41;;;;;;;20.88;9.32;;;;;;;;;;4975956;28;20489;-68
2023/12/21 05:12:07;;;;;;;24.95;9.43;;;;;;;;;;4967007;28;20041;-68
2023/12/21 05:14:33;;;;;;;16.23;8.02;;;;;;;;;;4963786;28;20726;-68
2023/12/21 05:16:59;;;;;;;18.95;9.15;;;;;;;;;;4962096;28;20043;-68
2023/12/21 05:19:25;;;;;;;19.65;8.88;;;;;;;;;;4960643;28;20046;-68
2023/12/21 05:21:51;;;;;;;20.90;9.02;;;;;;;;;;4962050;28;20034;-69
2023/12/21 05:24:17;;;;;;;19.27;9.10;;;;;;;;;;4959704;28;20035;-68
2023/12/21 05:26:43;;;;;;;25.70;10.00;;;;;;;;;;4961485;28;20027;-68
2023/12/21 05:29:09;;;;;;;19.73;9.20;;;;;;;;;;4960926;28;20038;-69
2023/12/21 05:31:37;;;;;;;24.48;10.15;;;;;;;;;;4961569;28;20054;-69
2023/12/21 05:34:04;;;;;;;26.67;10.30;;;;;;;;;;4961303;28;20031;-68
2023/12/21 05:36:30;;;;;;;21.65;10.32;;;;;;;;;;4975283;28;20439;-68
2023/12/21 05:38:56;;;;;;;25.80;10.02;;;;;;;;;;4979212;28;20035;-68
2023/12/21 05:41:22;;;;;;;27.98;11.48;;;;;;;;;;4983720;28;20453;-68
2023/12/21 05:43:48;;;;;;;35.55;11.95;;;;;;;;;;4984733;28;20047;-68
2023/12/21 05:46:14;;;;;;;32.80;12.23;;;;;;;;;;4981189;28;20057;-69
2023/12/21 05:48:40;;;;;;;31.38;12.88;;;;;;;;;;4982283;28;20046;-69
2023/12/21 05:51:06;;;;;;;39.83;12.90;;;;;;;;;;4982978;28;20077;-69
2023/12/21 05:53:35;;;;;;;32.05;11.75;;;;;;;;;;4986645;28;20390;-70
2023/12/21 05:56:02;;;;;;;29.13;11.85;;;;;;;;;;4983938;28;20042;-70
2023/12/21 05:58:28;;;;;;;32.50;12.43;;;;;;;;;;4983671;28;20026;-69
2023/12/21 06:00:54;;;;;;;40.80;13.55;;;;;;;;;;4984939;28;20066;-69
2023/12/21 06:03:21;;;;;;;57.92;16.17;;;;;;;;;;4983860;28;20171;-70
2023/12/21 06:05:46;;;;;;;66.03;17.13;;;;;;;;;;4981986;28;20030;-69
2023/12/21 06:08:12;;;;;;;49.60;15.75;;;;;;;;;;4983917;28;20148;-69
2023/12/21 06:10:38;;;;;;;37.78;13.48;;;;;;;;;;4978736;28;20027;-69
2023/12/21 06:13:04;;;;;;;35.45;13.73;;;;;;;;;;4985097;28;20382;-70
2023/12/21 06:15:30;;;;;;;38.20;14.27;;;;;;;;;;4970984;28;20499;-68
2023/12/21 06:17:56;;;;;;;34.60;11.63;;;;;;;;;;4967684;28;20472;-69
2023/12/21 06:20:22;;;;;;;34.55;11.82;;;;;;;;;;4966629;28;20443;-69
2023/12/21 06:22:48;;;;;;;32.38;11.23;;;;;;;;;;4984389;28;20038;-69
2023/12/21 06:25:14;;;;;;;34.28;11.98;;;;;;;;;;4983013;28;20030;-68
2023/12/21 06:27:40;;;;;;;36.95;12.02;;;;;;;;;;4984446;28;20034;-69
2023/12/21 06:30:07;;;;;;;30.20;11.98;;;;;;;;;;4983117;28;20031;-69
2023/12/21 06:32:32;;;;;;;27.27;11.57;;;;;;;;;;4972498;28;20043;-68
2023/12/21 06:34:59;;;;;;;34.38;12.15;;;;;;;;;;4979313;28;20042;-68
2023/12/21 06:37:25;;;;;;;29.92;12.95;;;;;;;;;;4985096;28;20177;-69
2023/12/21 06:39:50;;;;;;;32.15;12.88;;;;;;;;;;4983299;28;20038;-69
2023/12/21 06:42:16;;;;;;;38.72;13.35;;;;;;;;;;4983208;28;20039;-68
2023/12/21 06:44:42;;;;;;;40.17;14.40;;;;;;;;;;4985013;28;20099;-69
2023/12/21 06:47:08;;;;;;;34.15;13.25;;;;;;;;;;4981302;28;20038;-69
2023/12/21 06:49:34;;;;;;;36.15;12.90;;;;;;;;;;4985440;28;20125;-69
2023/12/21 06:52:00;;;;;;;30.25;12.10;;;;;;;;;;4982287;28;20498;-70
2023/12/21 06:54:26;;;;;;;37.17;13.23;;;;;;;;;;4984413;28;20045;-69
2023/12/21 06:56:52;;;;;;;36.88;13.18;;;;;;;;;;4984769;28;20125;-69
2023/12/21 06:59:18;;;;;;;25.67;11.90;;;;;;;;;;4982438;28;20854;-69
2023/12/21 07:01:44;;;;;;;24.45;11.60;;;;;;;;;;4981691;28;20506;-69
2023/12/21 07:04:11;;;;;;;27.80;12.30;;;;;;;;;;4981395;28;20038;-69
2023/12/21 07:06:37;;;;;;;26.95;11.55;;;;;;;;;;4982372;28;20057;-70
2023/12/21 07:09:03;;;;;;;21.27;10.57;;;;;;;;;;4980663;28;20074;-69
2023/12/21 07:11:29;;;;;;;28.88;10.70;;;;;;;;;;4984736;28;20063;-69
2023/12/21 07:13:55;;;;;;;27.00;11.43;;;;;;;;;;4983501;28;20102;-69
2023/12/21 07:16:23;;;;;;;29.10;11.73;;;;;;;;;;4982154;28;20038;-69
2023/12/21 07:18:50;;;;;;;25.13;12.10;;;;;;;;;;4983308;28;20034;-69
2023/12/21 07:21:16;;;;;;;35.33;13.20;;;;;;;;;;4981186;28;20034;-69
2023/12/21 07:23:42;;;;;;;41.38;14.25;;;;;;;;;;4982325;28;20387;-69
2023/12/21 07:26:10;;;;;;;31.48;12.27;;;;;;;;;;4981128;28;20035;-69
2023/12/21 07:28:36;;;;;;;28.52;12.75;;;;;;;;;;4985730;28;20049;-69
2023/12/21 07:31:02;;;;;;;36.42;12.48;;;;;;;;;;4980867;28;20491;-69
2023/12/21 07:33:28;;;;;;;31.05;11.68;;;;;;;;;;4980404;28;20494;-68
2023/12/21 07:35:54;;;;;;;32.00;11.52;;;;;;;;;;4980476;28;20034;-69
2023/12/21 07:38:20;;;;;;;26.15;12.15;;;;;;;;;;4984308;28;20485;-69
2023/12/21 07:40:46;;;;;;;35.05;12.05;;;;;;;;;;4980753;28;20363;-69
2023/12/21 07:43:12;;;;;;;41.75;13.90;;;;;;;;;;4979586;28;20039;-69
2023/12/21 07:45:38;;;;;;;8.55;2.97;;;;;;;;;;4983671;28;20034;-69
2023/12/21 07:48:05;;;;;;;17.55;2.30;;;;;;;;;;4982012;28;20395;-69
2023/12/21 07:50:31;;;;;;;3.40;0.85;;;;;;;;;;4984179;28;20498;-68
2023/12/21 07:52:57;;;;;;;9.45;2.53;;;;;;;;;;4979531;28;20041;-69
2023/12/21 07:55:23;;;;;;;2.08;1.00;;;;;;;;;;4980500;28;20380;-69
2023/12/21 07:57:49;;;;;;;6.18;1.38;;;;;;;;;;4984696;28;20069;-69
2023/12/21 08:00:16;;;;;;;8.70;2.63;;;;;;;;;;4980594;28;20502;-69
2023/12/21 08:02:44;;;;;;;8.15;2.83;;;;;;;;;;4985503;28;20048;-70
2023/12/21 08:05:13;;;;;;;2.13;0.77;;;;;;;;;;4979000;28;20483;-70
2023/12/21 08:07:39;;;;;;;4.35;1.67;;;;;;;;;;4981732;28;20034;-70
2023/12/21 08:10:09;;;;;;;12.55;4.78;;;;;;;;;;4981576;28;20042;-70
2023/12/21 08:12:35;;;;;;;5.20;2.33;;;;;;;;;;4979426;28;20593;-69
2023/12/21 08:15:01;;;;;;;0.05;0.05;;;;;;;;;;4985419;28;20490;-70
2023/12/21 08:17:27;;;;;;;8.05;1.23;;;;;;;;;;4987212;28;20042;-69
2023/12/21 08:19:54;;;;;;;3.92;1.23;;;;;;;;;;4982730;28;20453;-69
2023/12/21 08:22:22;;;;;;;6.68;1.20;;;;;;;;;;4983119;28;20089;-72
2023/12/21 08:24:48;;;;;;;9.50;4.22;;;;;;;;;;4966883;28;20044;-71
2023/12/21 08:27:14;;;;;;;7.07;2.72;;;;;;;;;;4970898;28;20038;-71
2023/12/21 08:29:40;;;;;;;2.28;1.15;;;;;;;;;;4972495;28;20092;-69
2023/12/21 08:32:06;;;;;;;3.90;1.52;;;;;;;;;;4965308;28;20104;-68
2023/12/21 08:34:33;;;;;;;6.32;1.17;;;;;;;;;;4974364;28;20043;-67
2023/12/21 08:36:59;;;;;;;5.97;1.73;;;;;;;;;;4978322;28;20065;-67
2023/12/21 08:39:26;;;;;;;2.08;0.22;;;;;;;;;;4982196;28;20393;-66
2023/12/21 08:41:52;;;;;;;9.10;2.28;;;;;;;;;;4988110;28;20044;-67
2023/12/21 08:44:18;;;;;;;1.48;1.33;;;;;;;;;;4981398;28;20069;-66
2023/12/21 08:46:44;;;;;;;1.75;0.32;;;;;;;;;;4982817;28;20030;-67
2023/12/21 08:49:15;;;;;;;1.17;0.55;;;;;;;;;;4982802;28;20066;-66
2023/12/21 08:51:41;;;;;;;2.25;1.17;;;;;;;;;;4982853;28;20031;-67
2023/12/21 08:54:07;;;;;;;1.25;1.02;;;;;;;;;;4979160;28;20037;-66
2023/12/21 08:56:33;;;;;;;0.90;0.80;;;;;;;;;;4984525;28;20536;-67
2023/12/21 08:58:59;;;;;;;0.00;0.00;;;;;;;;;;4981974;28;20486;-66
2023/12/21 09:01:26;;;;;;;1.55;1.45;;;;;;;;;;4960703;28;20042;-67
2023/12/21 09:03:52;;;;;;;13.60;5.93;;;;;;;;;;4957496;28;20038;-66
2023/12/21 09:06:18;;;;;;;2.15;1.95;;;;;;;;;;4980049;28;20057;-67
2023/12/21 09:08:44;;;;;;;2.15;1.50;;;;;;;;;;4962271;28;20474;-65
2023/12/21 09:11:10;;;;;;;6.03;0.38;;;;;;;;;;4970570;28;20113;-67
2023/12/21 09:13:36;;;;;;;1.58;1.17;;;;;;;;;;4983261;28;20104;-67
2023/12/21 09:16:01;;;;;;;0.52;0.35;;;;;;;;;;4968842;28;20039;-66
2023/12/21 09:18:27;;;;;;;2.45;1.17;;;;;;;;;;4980347;28;20058;-65
2023/12/21 09:20:53;;;;;;;1.27;0.75;;;;;;;;;;4972937;28;20545;-65
2023/12/21 09:23:19;;;;;;;2.92;1.65;;;;;;;;;;4966776;28;20443;-65
2023/12/21 09:25:45;;;;;;;0.85;0.50;;;;;;;;;;4979867;28;20788;-66
2023/12/21 09:28:11;;;;;;;0.52;0.32;;;;;;;;;;4974570;28;20073;-67
2023/12/21 09:30:37;;;;;;;0.52;0.43;;;;;;;;;;4967174;28;20039;-67
2023/12/21 09:33:05;;;;;;;0.25;0.25;;;;;;;;;;4983017;28;20141;-66
2023/12/21 09:35:31;;;;;;;0.75;0.47;;;;;;;;;;4980124;28;20094;-67
2023/12/21 09:37:57;;;;;;;0.10;0.05;;;;;;;;;;4967659;28;20041;-67
2023/12/21 09:40:25;;;;;;;0.40;0.30;;;;;;;;;;4976822;28;20044;-68
2023/12/21 09:42:51;;;;;;;1.55;0.45;;;;;;;;;;4990169;28;20120;-66
2023/12/21 09:45:18;;;;;;;0.80;0.43;;;;;;;;;;4991876;28;20148;-71
2023/12/21 09:47:45;;;;;;;2.58;0.68;;;;;;;;;;4991297;28;20051;-70
2023/12/21 09:50:12;;;;;;;0.13;0.13;;;;;;;;;;4979688;28;20125;-69
2023/12/21 09:52:39;;;;;;;0.43;0.30;;;;;;;;;;4983241;28;20038;-70
2023/12/21 09:55:06;;;;;;;1.45;0.73;;;;;;;;;;4991967;28;20564;-70
2023/12/21 09:57:39;;;;;;;1.85;0.90;;;;;;;;;;4993974;28;20082;-71
2023/12/21 10:00:06;;;;;;;0.27;0.07;;;;;;;;;;4991378;28;20038;-71
2023/12/21 10:02:32;;;;;;;0.73;0.43;;;;;;;;;;4987081;28;20467;-71
2023/12/21 10:04:58;;;;;;;0.55;0.28;;;;;;;;;;4987370;28;20113;-70
2023/12/21 10:07:26;;;;;;;0.10;0.10;;;;;;;;;;4993485;28;20509;-71
2023/12/21 10:09:52;;;;;;;2.17;0.65;;;;;;;;;;4978522;28;20048;-69
2023/12/21 10:12:18;;;;;;;0.05;0.00;;;;;;;;;;4979344;28;20454;-70
2023/12/21 10:14:44;;;;;;;0.45;0.05;;;;;;;;;;4976975;28;20046;-70
2023/12/21 10:17:10;;;;;;;0.43;0.15;;;;;;;;;;4979625;28;20180;-70
2023/12/21 10:19:36;;;;;;;1.98;0.35;;;;;;;;;;4986432;28;20124;-72
2023/12/21 10:22:02;;;;;;;0.25;0.25;;;;;;;;;;4981391;28;20237;-71
2023/12/21 10:24:28;;;;;;;0.88;0.40;;;;;;;;;;4965468;28;20104;-66
2023/12/21 10:26:54;;;;;;;0.60;0.40;;;;;;;;;;4983456;28;20099;-67
2023/12/21 10:29:20;;;;;;;1.05;0.65;;;;;;;;;;4975750;28;20050;-66
2023/12/21 10:31:48;;;;;;;0.73;0.45;;;;;;;;;;4986651;28;20042;-66
2023/12/21 10:34:17;;;;;;;1.33;0.50;;;;;;;;;;4985718;28;20034;-67
2023/12/21 10:36:45;;;;;;;0.05;0.05;;;;;;;;;;4982804;28;20070;-70
2023/12/21 10:39:11;;;;;;;0.68;0.60;;;;;;;;;;4991838;28;20034;-70
2023/12/21 10:41:41;;;;;;;0.98;0.47;;;;;;;;;;4983177;28;20485;-71
2023/12/21 10:44:08;;;;;;;2.45;1.08;;;;;;;;;;4981070;28;20053;-70
2023/12/21 10:46:34;;;;;;;2.63;1.00;;;;;;;;;;4979391;28;20552;-67
2023/12/21 10:49:01;;;;;;;0.65;0.65;;;;;;;;;;4979004;28;20398;-67
2023/12/21 10:51:37;;;;;;;1.95;1.00;;;;;;;;;;4963813;28;20061;-67
2023/12/21 10:54:06;;;;;;;1.48;0.65;;;;;;;;;;4964278;28;20076;-67
2023/12/21 10:56:32;;;;;;;5.60;1.83;;;;;;;;;;4963488;28;20172;-71
2023/12/21 10:59:03;;;;;;;3.42;2.22;;;;;;;;;;4962535;28;20034;-70
2023/12/21 11:01:30;;;;;;;0.15;0.15;;;;;;;;;;4965542;28;20660;-72
2023/12/21 11:04:01;;;;;;;10.32;2.08;;;;;;;;;;4962112;28;20585;-70
2023/12/21 11:06:27;;;;;;;1.58;1.23;;;;;;;;;;4981580;28;20523;-71
2023/12/21 11:08:57;;;;;;;1.65;1.13;;;;;;;;;;4980909;28;20054;-70
2023/12/21 11:11:23;;;;;;;5.35;2.40;;;;;;;;;;4979374;28;20034;-70
2023/12/21 11:13:55;;;;;;;3.05;2.00;;;;;;;;;;4976272;28;20038;-70
2023/12/21 11:16:23;;;;;;;1.92;1.35;;;;;;;;;;4971147;28;20042;-70
2023/12/21 11:18:50;;;;;;;2.38;1.17;;;;;;;;;;4978855;28;20040;-71
2023/12/21 11:21:17;;;;;;;0.55;0.52;;;;;;;;;;4980965;28;20041;-71
2023/12/21 11:23:44;;;;;;;6.40;2.58;;;;;;;;;;4978086;28;20037;-71
2023/12/21 11:26:11;;;;;;;1.45;1.02;;;;;;;;;;4974951;28;20061;-71
2023/12/21 11:28:38;;;;;;;1.25;0.38;;;;;;;;;;4970899;28;20129;-70
2023/12/21 11:31:16;;;;;;;1.95;0.85;;;;;;;;;;4968382;28;20034;-71
2023/12/21 11:33:42;;;;;;;1.00;0.77;;;;;;;;;;4969130;28;20077;-69
2023/12/21 11:36:09;;;;;;;0.93;0.68;;;;;;;;;;4984286;28;20038;-71
2023/12/21 11:38:45;;;;;;;2.80;0.52;;;;;;;;;;4973340;28;20031;-70
2023/12/21 11:41:12;;;;;;;5.93;1.45;;;;;;;;;;4969435;28;20033;-71
2023/12/21 11:43:38;;;;;;;2.47;1.00;;;;;;;;;;4966822;28;20057;-71
2023/12/21 11:46:04;;;;;;;1.05;0.30;;;;;;;;;;4969432;28;20037;-71
2023/12/21 11:48:33;;;;;;;3.10;0.82;;;;;;;;;;4968490;28;20227;-73
2023/12/21 11:51:02;;;;;;;3.88;0.50;;;;;;;;;;4972138;28;20045;-70
2023/12/21 11:53:28;;;;;;;2.03;1.85;;;;;;;;;;4969925;28;20033;-70
2023/12/21 11:55:54;;;;;;;0.35;0.20;;;;;;;;;;4974476;28;20054;-66
2023/12/21 11:58:22;;;;;;;0.45;0.32;;;;;;;;;;4969948;28;20090;-66
2023/12/21 12:00:58;;;;;;;0.17;0.17;;;;;;;;;;4970129;28;20046;-67
2023/12/21 12:03:27;;;;;;;1.45;0.90;;;;;;;;;;4970352;28;20898;-67
2023/12/21 12:06:06;;;;;;;5.78;0.77;;;;;;;;;;4971624;28;20043;-70
2023/12/21 12:08:33;;;;;;;1.88;0.75;;;;;;;;;;4967572;28;20402;-72
2023/12/21 12:10:59;;;;;;;7.97;0.40;;;;;;;;;;4967368;28;20042;-73
2023/12/21 12:13:25;;;;;;;0.52;0.15;;;;;;;;;;4972446;28;20042;-71
2023/12/21 12:15:52;;;;;;;0.20;0.17;;;;;;;;;;4971531;28;20038;-67
2023/12/21 12:18:21;;;;;;;8.98;0.57;;;;;;;;;;4970869;28;20041;-67
2023/12/21 12:20:48;;;;;;;0.43;0.28;;;;;;;;;;4972560;28;20045;-67
2023/12/21 12:23:14;;;;;;;3.58;0.73;;;;;;;;;;4967672;28;20684;-67
2023/12/21 12:25:41;;;;;;;5.03;0.90;;;;;;;;;;4974033;28;20410;-72
2023/12/21 12:28:08;;;;;;;1.65;1.27;;;;;;;;;;4971658;28;20034;-69
2023/12/21 12:30:35;;;;;;;2.65;0.40;;;;;;;;;;4967625;28;20439;-70
2023/12/21 12:33:03;;;;;;;0.10;0.10;;;;;;;;;;4965381;28;21078;-70
2023/12/21 12:35:31;;;;;;;1.75;0.47;;;;;;;;;;4964917;28;20047;-70
2023/12/21 12:37:57;;;;;;;0.55;0.28;;;;;;;;;;4969123;28;20077;-69
2023/12/21 12:40:23;;;;;;;1.58;0.68;;;;;;;;;;4969032;28;20117;-70
2023/12/21 12:42:50;;;;;;;0.00;0.00;;;;;;;;;;4973530;28;20597;-70
2023/12/21 12:45:16;;;;;;;0.20;0.20;;;;;;;;;;4950637;28;20125;-69
2023/12/21 12:47:44;;;;;;;0.10;0.10;;;;;;;;;;4969100;28;20411;-69
2023/12/21 12:50:14;;;;;;;4.15;0.35;;;;;;;;;;4967601;28;20049;-70
2023/12/21 12:52:44;;;;;;;0.10;0.10;;;;;;;;;;4968558;28;20398;-69
2023/12/21 12:55:18;;;;;;;0.08;0.03;;;;;;;;;;4965411;28;20438;-70
2023/12/21 12:57:50;;;;;;;0.00;0.00;;;;;;;;;;4966997;28;20039;-70
2023/12/21 13:00:17;;;;;;;0.60;0.17;;;11.30;99.90;;;;;;4969006;28;20034;-69
2023/12/21 13:02:43;;;;;;;1.63;0.57;;;11.30;99.90;;;;;;4972670;28;21542;-70
2023/12/21 13:05:09;;;;;;;0.00;0.00;;;11.30;99.90;;;;;;4968149;28;20184;-70
2023/12/21 13:07:35;;;;;;;2.50;0.30;;;11.30;99.90;;;;;;4968994;28;20427;-70
2023/12/21 13:10:01;;;;;;;0.15;0.15;;;11.40;99.90;;;;;;4950804;28;20045;-70
2023/12/21 13:12:26;;;;;;;2.47;0.73;;;11.40;99.90;;;;;;4971416;28;20042;-69
2023/12/21 13:14:52;;;;;;;1.70;0.20;;;11.40;99.90;;;;;;4974494;28;20735;-70
2023/12/21 13:17:17;;;;;;;0.10;0.10;;;11.50;99.90;;;;;;4970905;28;20137;-70
2023/12/21 13:19:44;;;;;;;0.03;0.03;;;11.50;99.90;;;;;;4966921;28;20035;-70
2023/12/21 13:22:13;;;;;;;0.10;0.10;;;11.50;99.90;;;;;;4959061;28;20037;-70
2023/12/21 13:24:39;;;;;;;0.80;0.40;;;11.50;99.90;;;;;;4966655;28;20038;-66
2023/12/21 13:27:05;;;;;;;0.03;0.00;;;11.50;99.90;;;;;;4968930;28;20655;-72
2023/12/21 13:29:30;;;;;;;0.10;0.10;;;11.60;99.90;;;;;;4961380;28;20414;-73
2023/12/21 13:31:56;;;;;;;0.57;0.57;;;11.50;99.90;;;;;;4962899;28;20463;-73
2023/12/21 13:34:22;;;;;;;0.00;0.00;;;11.60;99.90;;;;;;4962048;28;20046;-73
2023/12/21 13:36:47;;;;;;;0.20;0.13;;;11.60;99.90;;;;;;4964091;28;20039;-71
2023/12/21 13:39:13;;;;;;;0.80;0.13;;;11.70;99.90;;;;;;4963737;28;20214;-72
2023/12/21 13:41:39;;;;;;;0.20;0.20;;;11.70;99.90;;;;;;4967988;28;20120;-72
2023/12/21 13:44:04;;;;;;;0.00;0.00;;;11.60;99.90;;;;;;4954828;28;20077;-72
2023/12/21 13:46:30;;;;;;;0.63;0.20;;;11.50;99.90;;;;;;4959735;28;20031;-72
2023/12/21 13:48:56;;;;;;;0.03;0.03;;;11.50;99.90;;;;;;4960856;28;20066;-71
2023/12/21 13:51:21;;;;;;;0.32;0.28;;;11.40;99.90;;;;;;4964977;28;20144;-73
2023/12/21 13:53:47;;;;;;;1.98;0.30;;;11.40;99.90;;;;;;4959166;28;20039;-72
2023/12/21 13:56:13;;;;;;;0.98;0.73;;;11.40;99.90;;;;;;4961739;28;20486;-73
2023/12/21 13:58:39;;;;;;;0.00;0.00;;;11.40;99.90;;;;;;4962429;28;20074;-71
2023/12/21 14:01:06;;;;;;;1.70;0.30;;;11.30;99.90;;;;;;4966745;28;20483;-72
2023/12/21 14:03:31;;;;;;;0.17;0.17;;;11.30;99.90;;;;;;4967988;28;20459;-72
2023/12/21 14:05:57;;;;;;;3.03;0.43;;;11.30;99.90;;;;;;4968952;28;20098;-73
2023/12/21 14:08:23;;;;;;;3.72;0.93;;;11.30;99.90;;;;;;4945973;28;20349;-72
2023/12/21 14:10:48;;;;;;;1.80;0.55;;;11.50;99.90;;;;;;4942341;28;20500;-72
2023/12/21 14:13:15;;;;;;;0.45;0.30;;;11.30;99.90;;;;;;4964614;28;20415;-73